Decoded Metar for YPWR (WOOMERA in AUSTRALIA) (IATA:UMR) | Meteo·Mobile Aviation Weather
aviador You're here:

YPWR Decoded Metar

WOOMERA in AUSTRALIA
Report Time2018-09-18 16:00:00
UTC Time2018-09-18 16:17:40
Flight Rules vfr VFR
Wind220° at 10 kt
W.Decomp.*RWY 18: 8.2 kt HW 5.7 kt RCW
RWY 30: 0.9 kt HW 10 kt LCW
W.Rank220° ranks 15
Current wind is below 220° avg. (11.4)
Visibility9999 m
Phenomena:N/A
Clouds:N/A
Expected CloudBase > 2,800 ft AGL from Temp-Dew spread
CeilingNone
Temp09°C (ISA -5)
Dew Point02°C (62% RH)
AAT3.7°C
QNH1019 hPa
Density Alt-144 ft
Elevation548 ft
Report Wrong Elevation
Raw Report
METAR YPWR 181600Z AUTO 22010KT 9999 // NCD 09/02 Q1019=

Extra information for YPWR:More info

Metar Taf Metar & Taf Last 4 Metars F.Rules Stats Wind Profile Meteogram Temp Stats Airport Information Weather charts Add Link Nearby VenuesMetar ALERT Operation Metar Decoded Social comments